createdAt,value
2018-04-10T00:00:16.775Z,24.80
2018-04-10T00:02:44.544Z,23.42
2018-04-10T00:05:12.394Z,23.20
2018-04-10T00:07:40.940Z,24.67
2018-04-10T00:10:08.723Z,25.52
2018-04-10T00:12:36.590Z,21.73
2018-04-10T00:15:04.356Z,25.92
2018-04-10T00:17:32.129Z,22.52
2018-04-10T00:19:59.958Z,23.33
2018-04-10T00:22:27.729Z,20.75
2018-04-10T00:24:55.502Z,25.95
2018-04-10T00:27:23.321Z,19.42
2018-04-10T00:29:51.747Z,18.40
2018-04-10T00:32:19.509Z,24.55
2018-04-10T00:34:47.327Z,20.12
2018-04-10T00:37:15.089Z,18.05
2018-04-10T00:39:42.853Z,20.50
2018-04-10T00:42:10.686Z,18.35
2018-04-10T00:44:39.229Z,17.52
2018-04-10T00:47:07.008Z,19.92
2018-04-10T00:49:34.857Z,19.02
2018-04-10T00:52:02.613Z,19.12
2018-04-10T00:54:30.382Z,18.08
2018-04-10T00:56:58.249Z,19.80
2018-04-10T00:59:26.020Z,19.08
2018-04-10T01:01:53.790Z,18.62
2018-04-10T01:04:21.617Z,17.02
2018-04-10T01:06:49.392Z,19.40
2018-04-10T01:09:17.165Z,20.35
2018-04-10T01:11:45.209Z,19.70
2018-04-10T01:14:12.997Z,17.55
2018-04-10T01:16:40.773Z,18.62
2018-04-10T01:19:08.629Z,20.95
2018-04-10T01:21:36.418Z,21.12
2018-04-10T01:24:04.233Z,23.62
2018-04-10T01:26:32.049Z,17.58
2018-04-10T01:29:00.597Z,18.65
2018-04-10T01:31:28.370Z,18.20
2018-04-10T01:33:56.439Z,16.62
2018-04-10T01:36:24.209Z,19.00
2018-04-10T01:38:52.749Z,16.67
2018-04-10T01:41:20.734Z,17.05
2018-04-10T01:43:49.261Z,17.65
2018-04-10T01:46:17.038Z,16.42
2018-04-10T01:48:44.923Z,16.00
2018-04-10T01:51:12.688Z,15.48
2018-04-10T01:53:40.464Z,18.35
2018-04-10T01:56:08.296Z,18.50
2018-04-10T01:58:36.064Z,21.08
2018-04-10T02:01:03.836Z,21.45
2018-04-10T02:03:31.662Z,16.25
2018-04-10T02:05:59.440Z,17.37
2018-04-10T02:08:27.211Z,18.23
2018-04-10T02:10:55.032Z,18.87
2018-04-10T02:13:23.561Z,19.00
2018-04-10T02:15:51.341Z,16.73
2018-04-10T02:18:19.164Z,21.87
2018-04-10T02:20:46.933Z,18.90
2018-04-10T02:23:14.705Z,20.45
2018-04-10T02:25:42.552Z,20.30
2018-04-10T02:28:10.328Z,20.02
2018-04-10T02:30:38.116Z,20.60
2018-04-10T02:33:05.945Z,20.08
2018-04-10T02:35:33.721Z,20.10
2018-04-10T02:38:01.505Z,24.83
2018-04-10T02:40:29.346Z,19.98
2018-04-10T02:42:57.882Z,19.85
2018-04-10T02:45:26.407Z,22.25
2018-04-10T02:47:54.253Z,20.67
2018-04-10T02:50:22.026Z,19.90
2018-04-10T02:52:49.804Z,23.42
2018-04-10T02:55:17.636Z,21.05
2018-04-10T02:57:45.415Z,23.83
2018-04-10T03:00:13.182Z,20.67
2018-04-10T03:02:41.020Z,19.85
2018-04-10T03:05:08.792Z,20.60
2018-04-10T03:07:36.580Z,23.00
2018-04-10T03:10:04.500Z,20.40
2018-04-10T03:12:33.021Z,20.00
2018-04-10T03:15:00.779Z,19.02
2018-04-10T03:17:28.593Z,19.67
2018-04-10T03:19:57.139Z,19.05
2018-04-10T03:22:24.912Z,21.80
2018-04-10T03:24:52.757Z,18.83
2018-04-10T03:27:20.550Z,20.35
2018-04-10T03:29:48.317Z,21.08
2018-04-10T03:32:16.906Z,19.92
2018-04-10T03:34:45.470Z,25.55
2018-04-10T03:37:13.221Z,19.95
2018-04-10T03:39:41.040Z,20.20
2018-04-10T03:42:08.810Z,22.67
2018-04-10T03:44:36.584Z,21.40
2018-04-10T03:47:04.399Z,18.55
2018-04-10T03:49:32.945Z,20.25
2018-04-10T03:52:01.500Z,19.15
2018-04-10T03:54:29.321Z,19.30
2018-04-10T03:56:57.872Z,21.23
2018-04-10T03:59:25.671Z,22.23
2018-04-10T04:01:54.270Z,21.00
2018-04-10T04:04:22.053Z,19.98
2018-04-10T04:06:49.821Z,19.67
2018-04-10T04:09:17.645Z,19.70
2018-04-10T04:11:45.417Z,21.30
2018-04-10T04:14:13.197Z,23.77
2018-04-10T04:16:52.968Z,20.83
2018-04-10T04:19:32.504Z,20.42
2018-04-10T04:22:12.133Z,21.12
2018-04-10T04:24:39.933Z,27.17
2018-04-10T04:27:08.473Z,21.65
2018-04-10T04:29:36.313Z,19.35
2018-04-10T04:32:05.728Z,22.13
2018-04-10T04:34:33.509Z,22.48
2018-04-10T04:37:01.334Z,21.02
2018-04-10T04:39:29.107Z,20.75
2018-04-10T04:41:56.884Z,19.50
2018-04-10T04:44:24.729Z,25.30
2018-04-10T04:46:52.514Z,21.42
2018-04-10T04:49:20.287Z,20.67
2018-04-10T04:51:48.113Z,20.08
2018-04-10T04:54:15.887Z,19.15
2018-04-10T04:56:43.657Z,22.52
2018-04-10T04:59:11.482Z,21.17
2018-04-10T05:01:39.272Z,22.20
2018-04-10T05:04:07.054Z,21.87
2018-04-10T05:06:34.925Z,18.37
2018-04-10T05:09:03.505Z,20.60
2018-04-10T05:11:31.313Z,17.62
2018-04-10T05:13:59.139Z,18.35
2018-04-10T05:16:26.952Z,18.10
2018-04-10T05:18:54.758Z,18.33
2018-04-10T05:21:22.593Z,22.48
2018-04-10T05:23:50.369Z,19.35
2018-04-10T05:26:18.172Z,17.30
2018-04-10T05:28:46.776Z,19.25
2018-04-10T05:31:14.561Z,18.55
2018-04-10T05:33:42.406Z,18.70
2018-04-10T05:36:10.260Z,18.35
2018-04-10T05:38:38.810Z,19.83
2018-04-10T05:41:06.580Z,16.62
2018-04-10T05:43:35.172Z,17.62
2018-04-10T05:46:03.704Z,16.15
2018-04-10T05:48:31.486Z,14.77
2018-04-10T05:50:59.412Z,16.35
2018-04-10T05:53:27.277Z,17.08
2018-04-10T05:55:55.052Z,17.05
2018-04-10T05:58:23.247Z,24.92
2018-04-10T06:00:51.045Z,17.60
2018-04-10T06:03:19.603Z,20.08
2018-04-10T06:05:47.442Z,16.30
2018-04-10T06:08:15.233Z,16.85
2018-04-10T06:10:43.001Z,17.17
2018-04-10T06:13:11.593Z,16.17
2018-04-10T06:15:40.204Z,19.50
2018-04-10T06:18:08.001Z,17.42
2018-04-10T06:20:35.846Z,15.95
2018-04-10T06:23:04.004Z,16.92
2018-04-10T06:25:31.814Z,16.55
2018-04-10T06:27:59.648Z,18.98
2018-04-10T06:30:27.430Z,15.90
2018-04-10T06:32:55.208Z,16.23
2018-04-10T06:35:23.030Z,16.58
2018-04-10T06:37:50.826Z,16.45
2018-04-10T06:40:18.670Z,16.00
2018-04-10T06:42:46.525Z,14.45
2018-04-10T06:45:14.420Z,15.52
2018-04-10T06:47:42.220Z,16.15
2018-04-10T06:50:10.053Z,15.70
2018-04-10T06:52:37.905Z,15.35
2018-04-10T06:55:05.693Z,15.27
2018-04-10T06:57:34.353Z,15.43
2018-04-10T07:00:02.136Z,14.77
2018-04-10T07:02:30.711Z,15.52
2018-04-10T07:04:59.309Z,14.60
2018-04-10T07:07:27.110Z,15.93
2018-04-10T07:09:55.653Z,14.07
2018-04-10T07:12:23.602Z,15.35
2018-04-10T07:14:51.488Z,16.42
2018-04-10T07:17:19.343Z,13.85
2018-04-10T07:19:47.226Z,14.30
2018-04-10T07:22:15.443Z,16.65
2018-04-10T07:24:44.070Z,15.23
2018-04-10T07:27:12.397Z,15.03
2018-04-10T07:29:40.203Z,20.13
2018-04-10T07:32:08.006Z,12.80
2018-04-10T07:34:35.824Z,14.27
2018-04-10T07:37:04.363Z,13.90
2018-04-10T07:39:32.127Z,15.40
2018-04-10T07:42:00.076Z,13.37
2018-04-10T07:44:28.800Z,13.07
2018-04-10T07:46:56.602Z,13.77
2018-04-10T07:49:24.440Z,14.35
2018-04-10T07:51:52.812Z,12.43
2018-04-10T07:54:21.976Z,15.65
2018-04-10T07:56:50.661Z,13.73
2018-04-10T07:59:19.325Z,14.25
2018-04-10T08:01:48.381Z,10.02
2018-04-10T08:04:16.723Z,12.20
2018-04-10T08:06:45.915Z,18.65
2018-04-10T08:09:14.541Z,22.50
2018-04-10T08:11:42.704Z,6.43
2018-04-10T08:14:10.505Z,7.50
2018-04-10T08:16:39.408Z,12.70
2018-04-10T08:19:07.296Z,10.80
2018-04-10T08:21:35.829Z,7.70
2018-04-10T08:24:03.600Z,6.03
2018-04-10T08:26:31.419Z,7.93
2018-04-10T08:28:59.189Z,9.27
2018-04-10T08:31:26.957Z,12.43
2018-04-10T08:33:54.799Z,8.57
2018-04-10T08:36:23.339Z,6.35
2018-04-10T08:38:51.137Z,6.78
2018-04-10T08:41:19.722Z,8.55
2018-04-10T08:43:48.291Z,7.30
2018-04-10T08:46:16.849Z,6.47
2018-04-10T08:48:44.785Z,7.95
2018-04-10T08:51:12.578Z,8.75
2018-04-10T08:53:40.395Z,7.22
2018-04-10T08:56:08.228Z,3.83
2018-04-10T08:58:36.802Z,5.07
2018-04-10T09:01:05.392Z,4.45
2018-04-10T09:03:34.013Z,4.95
2018-04-10T09:06:01.825Z,6.80
2018-04-10T09:08:30.382Z,5.43
2018-04-10T09:10:58.239Z,6.03
2018-04-10T09:13:26.040Z,4.55
2018-04-10T09:15:55.211Z,5.05
2018-04-10T09:18:23.055Z,4.40
2018-04-10T09:20:50.886Z,5.03
2018-04-10T09:23:18.665Z,4.90
2018-04-10T09:25:46.485Z,3.85
2018-04-10T09:28:15.034Z,5.50
2018-04-10T09:30:42.799Z,3.58
2018-04-10T09:33:10.617Z,3.90
2018-04-10T09:35:38.426Z,5.00
2018-04-10T09:38:06.216Z,3.55
2018-04-10T09:40:34.805Z,8.52
2018-04-10T09:43:03.355Z,6.15
2018-04-10T09:45:31.145Z,8.65
2018-04-10T09:47:59.725Z,6.18
2018-04-10T09:50:28.292Z,7.20
2018-04-10T09:52:56.062Z,3.97
2018-04-10T09:55:23.900Z,8.52
2018-04-10T09:57:51.686Z,4.75
2018-04-10T10:00:25.130Z,6.53
2018-04-10T10:02:52.923Z,6.30
2018-04-10T10:05:20.696Z,5.22
2018-04-10T10:07:48.522Z,4.20
2018-04-10T10:10:16.289Z,7.57
2018-04-10T10:12:44.101Z,5.75
2018-04-10T10:15:12.697Z,5.95
2018-04-10T10:17:41.235Z,5.65
2018-04-10T10:20:09.006Z,6.05
2018-04-10T10:22:36.844Z,6.32
2018-04-10T10:25:05.382Z,5.95
2018-04-10T10:27:33.942Z,4.07
2018-04-10T10:30:02.527Z,4.25
2018-04-10T10:32:30.282Z,4.97
2018-04-10T10:34:58.821Z,4.15
2018-04-10T10:37:26.638Z,4.95
2018-04-10T10:39:55.175Z,4.35
2018-04-10T10:42:22.960Z,3.47
2018-04-10T10:44:50.797Z,9.15
2018-04-10T10:47:19.333Z,3.65
2018-04-10T10:49:47.861Z,4.03
2018-04-10T10:52:16.452Z,5.10
2018-04-10T10:54:44.228Z,7.47
2018-04-10T10:57:11.998Z,3.08
2018-04-10T10:59:39.838Z,4.93
2018-04-10T11:02:07.611Z,3.67
2018-04-10T11:04:35.383Z,5.35
2018-04-10T11:07:03.978Z,5.05
2018-04-10T11:09:31.786Z,4.82
2018-04-10T11:11:59.616Z,4.07
2018-04-10T11:14:27.426Z,3.83
2018-04-10T11:16:55.188Z,3.40
2018-04-10T11:19:22.941Z,3.40
2018-04-10T11:21:50.761Z,3.35
2018-04-10T11:24:18.541Z,3.28
2018-04-10T11:26:46.307Z,7.20
2018-04-10T11:29:14.170Z,5.60
2018-04-10T11:31:41.934Z,6.97
2018-04-10T11:34:09.724Z,8.27
2018-04-10T11:36:37.568Z,5.07
2018-04-10T11:39:06.287Z,3.65
2018-04-10T11:41:34.101Z,3.70
2018-04-10T11:44:01.932Z,6.45
2018-04-10T11:46:29.719Z,3.90
2018-04-10T11:48:57.493Z,4.40
2018-04-10T11:51:25.322Z,5.30
2018-04-10T11:53:53.870Z,10.00
2018-04-10T11:56:21.629Z,5.85
2018-04-10T11:58:49.449Z,4.45
2018-04-10T12:01:17.218Z,5.07
2018-04-10T12:03:45.004Z,4.60
2018-04-10T12:06:12.818Z,4.95
2018-04-10T12:08:41.366Z,8.73
2018-04-10T12:11:09.133Z,5.30
2018-04-10T12:13:36.966Z,2.80
2018-04-10T12:16:04.759Z,4.85
2018-04-10T12:18:32.532Z,2.80
2018-04-10T12:21:00.406Z,4.53
2018-04-10T12:23:28.943Z,4.50
2018-04-10T12:25:56.714Z,5.25
2018-04-10T12:28:25.314Z,6.15
2018-04-10T12:30:53.080Z,5.45
2018-04-10T12:33:20.841Z,2.47
2018-04-10T12:35:48.666Z,4.97
2018-04-10T12:38:16.433Z,5.30
2018-04-10T12:40:44.198Z,5.30
2018-04-10T12:43:12.017Z,6.03
2018-04-10T12:45:40.549Z,8.15
2018-04-10T12:48:08.345Z,14.13
2018-04-10T12:50:36.936Z,3.22
2018-04-10T12:53:04.725Z,4.62
2018-04-10T12:55:32.531Z,6.72
2018-04-10T12:58:00.353Z,4.07
2018-04-10T13:00:28.158Z,5.80
2018-04-10T13:02:55.929Z,3.37
2018-04-10T13:05:23.743Z,4.25
2018-04-10T13:07:51.521Z,5.18
2018-04-10T13:10:19.307Z,6.45
2018-04-10T13:12:47.125Z,4.45
2018-04-10T13:15:14.965Z,3.33
2018-04-10T13:17:43.501Z,3.37
2018-04-10T13:20:11.330Z,6.55
2018-04-10T13:22:39.105Z,4.68
2018-04-10T13:25:06.865Z,3.85
2018-04-10T13:27:34.717Z,6.87
2018-04-10T13:30:02.501Z,7.43
2018-04-10T13:32:30.307Z,4.37
2018-04-10T13:34:58.920Z,4.93
2018-04-10T13:37:26.695Z,11.48
2018-04-10T13:39:54.477Z,4.60
2018-04-10T13:42:22.288Z,3.90
2018-04-10T13:44:50.820Z,3.72
2018-04-10T13:47:18.598Z,3.12
2018-04-10T13:49:46.417Z,5.65
2018-04-10T13:52:14.187Z,6.57
2018-04-10T13:54:41.963Z,7.00
2018-04-10T13:57:10.253Z,3.67
2018-04-10T13:59:38.076Z,2.35
2018-04-10T14:02:05.884Z,2.40
2018-04-10T14:04:33.748Z,4.05
2018-04-10T14:07:01.540Z,5.78
2018-04-10T14:09:30.080Z,6.35
2018-04-10T14:11:57.913Z,2.25
2018-04-10T14:14:25.673Z,4.43
2018-04-10T14:16:53.435Z,3.03
2018-04-10T14:19:21.262Z,4.15
2018-04-10T14:21:49.822Z,4.37
2018-04-10T14:24:17.585Z,4.62
2018-04-10T14:26:45.447Z,3.00
2018-04-10T14:29:13.227Z,4.62
2018-04-10T14:31:41.019Z,5.30
2018-04-10T14:34:08.948Z,3.95
2018-04-10T14:36:36.755Z,3.37
2018-04-10T14:39:04.552Z,7.72
2018-04-10T14:41:32.376Z,4.22
2018-04-10T14:44:00.188Z,2.92
2018-04-10T14:46:27.961Z,3.60
2018-04-10T14:48:55.785Z,3.60
2018-04-10T14:51:23.544Z,8.73
2018-04-10T14:53:51.335Z,3.53
2018-04-10T14:56:19.167Z,5.20
2018-04-10T14:58:46.928Z,3.20
2018-04-10T15:03:56.802Z,15.63
2018-04-10T15:06:24.598Z,13.90
2018-04-10T15:08:52.372Z,6.82
2018-04-10T15:11:20.233Z,6.57
2018-04-10T15:13:47.999Z,2.95
2018-04-10T15:16:16.538Z,7.95
2018-04-10T15:18:44.393Z,5.68
2018-04-10T15:21:12.162Z,4.62
2018-04-10T15:23:39.933Z,5.18
2018-04-10T15:26:07.772Z,3.47
2018-04-10T15:28:35.539Z,4.57
2018-04-10T15:31:03.317Z,4.22
2018-04-10T15:33:31.132Z,4.93
2018-04-10T15:35:59.671Z,3.70
2018-04-10T15:38:27.449Z,11.38
2018-04-10T15:40:55.459Z,5.07
2018-04-10T15:43:23.379Z,5.00
2018-04-10T15:45:51.953Z,5.00
2018-04-10T15:48:19.794Z,4.78
2018-04-10T15:50:47.580Z,4.28
2018-04-10T15:53:15.370Z,3.95
2018-04-10T15:55:43.955Z,5.05
2018-04-10T15:58:12.487Z,7.47
2018-04-10T16:00:40.265Z,2.75
2018-04-10T16:03:08.105Z,6.07
2018-04-10T16:05:35.889Z,4.35
2018-04-10T16:08:03.709Z,5.45
2018-04-10T16:10:31.557Z,5.80
2018-04-10T16:12:59.320Z,5.93
2018-04-10T16:15:27.098Z,8.55
2018-04-10T16:17:54.930Z,4.68
2018-04-10T16:20:23.480Z,7.22
2018-04-10T16:22:51.633Z,7.97
2018-04-10T16:25:19.807Z,8.15
2018-04-10T16:27:47.577Z,6.87
2018-04-10T16:30:15.346Z,5.18
2018-04-10T16:32:43.172Z,12.63
2018-04-10T16:35:10.939Z,6.82
2018-04-10T16:37:38.710Z,5.30
2018-04-10T16:40:06.580Z,4.40
2018-04-10T16:42:34.347Z,7.47
2018-04-10T16:45:02.100Z,3.53
2018-04-10T16:47:29.943Z,6.15
2018-04-10T16:49:57.714Z,7.03
2018-04-10T16:52:25.513Z,6.80
2018-04-10T16:54:53.360Z,3.78
2018-04-10T16:57:21.143Z,5.32
2018-04-10T16:59:49.737Z,5.47
2018-04-10T17:02:18.349Z,6.53
2018-04-10T17:04:46.110Z,5.37
2018-04-10T17:07:13.896Z,4.10
2018-04-10T17:09:41.723Z,5.00
2018-04-10T17:12:10.252Z,5.43
2018-04-10T17:14:38.069Z,7.68
2018-04-10T17:17:06.686Z,5.05
2018-04-10T17:19:34.509Z,7.65
2018-04-10T17:22:03.157Z,4.85
2018-04-10T17:24:31.007Z,7.35
2018-04-10T17:26:58.787Z,7.78
2018-04-10T17:29:26.575Z,7.57
2018-04-10T17:31:55.179Z,8.38
2018-04-10T17:34:22.986Z,5.97
2018-04-10T17:36:50.755Z,6.28
2018-04-10T17:39:18.575Z,6.35
2018-04-10T17:41:46.386Z,5.65
2018-04-10T17:44:14.148Z,6.03
2018-04-10T17:46:42.940Z,6.93
2018-04-10T17:49:10.717Z,8.63
2018-04-10T17:51:39.337Z,8.52
2018-04-10T17:54:07.312Z,7.55
2018-04-10T17:56:35.073Z,5.22
2018-04-10T17:59:02.975Z,6.68
2018-04-10T18:01:30.834Z,11.20
2018-04-10T18:03:58.600Z,5.87
2018-04-10T18:06:26.369Z,8.80
2018-04-10T18:08:54.972Z,5.93
2018-04-10T18:11:22.745Z,6.70
2018-04-10T18:13:50.532Z,5.78
2018-04-10T18:16:18.372Z,8.60
2018-04-10T18:18:46.170Z,4.35
2018-04-10T18:21:13.975Z,7.95
2018-04-10T18:23:42.590Z,7.82
2018-04-10T18:26:10.419Z,7.78
2018-04-10T18:28:38.236Z,8.70
2018-04-10T18:31:06.097Z,11.57
2018-04-10T18:33:34.865Z,6.35
2018-04-10T18:36:02.998Z,8.77
2018-04-10T18:38:32.157Z,7.20
2018-04-10T18:41:00.572Z,7.55
2018-04-10T18:43:28.972Z,6.60
2018-04-10T18:45:58.185Z,6.60
2018-04-10T18:48:27.821Z,8.25
2018-04-10T18:50:56.710Z,11.02
2018-04-10T18:53:26.014Z,6.20
2018-04-10T18:55:54.196Z,6.03
2018-04-10T18:58:22.395Z,9.95
2018-04-10T19:00:50.698Z,11.52
2018-04-10T19:03:19.832Z,13.40
2018-04-10T19:05:47.677Z,7.70
2018-04-10T19:08:16.026Z,9.15
2018-04-10T19:10:44.635Z,11.43
2018-04-10T19:13:12.680Z,10.05
2018-04-10T19:15:40.533Z,11.02
2018-04-10T19:18:08.310Z,9.90
2018-04-10T19:20:36.137Z,7.82
2018-04-10T19:23:04.021Z,6.55
2018-04-10T19:25:31.868Z,12.80
2018-04-10T19:28:00.282Z,10.25
2018-04-10T19:30:29.072Z,7.72
2018-04-10T19:32:57.638Z,7.00
2018-04-10T19:35:25.444Z,9.13
2018-04-10T19:37:53.326Z,13.88
2018-04-10T19:40:21.870Z,8.02
2018-04-10T19:42:49.668Z,13.32
2018-04-10T19:45:18.293Z,10.55
2018-04-10T19:47:46.064Z,14.52
2018-04-10T19:50:13.867Z,8.40
2018-04-10T19:52:42.503Z,10.75
2018-04-10T19:55:10.348Z,9.77
2018-04-10T19:57:38.128Z,11.65
2018-04-10T20:00:05.949Z,13.23
2018-04-10T20:02:34.572Z,8.90
2018-04-10T20:05:02.363Z,10.82
2018-04-10T20:07:30.208Z,9.52
2018-04-10T20:09:58.102Z,10.27
2018-04-10T20:12:26.044Z,8.50
2018-04-10T20:14:54.175Z,7.82
2018-04-10T20:17:21.982Z,12.30
2018-04-10T20:19:49.869Z,7.32
2018-04-10T20:22:17.978Z,8.70
2018-04-10T20:24:45.778Z,7.37
2018-04-10T20:27:13.564Z,7.30
2018-04-10T20:29:41.527Z,9.50
2018-04-10T20:32:10.039Z,6.50
2018-04-10T20:34:37.919Z,11.57
2018-04-10T20:37:06.010Z,10.85
2018-04-10T20:39:33.780Z,11.15
2018-04-10T20:42:01.613Z,9.90
2018-04-10T20:44:29.468Z,6.78
2018-04-10T20:46:57.299Z,7.05
2018-04-10T20:49:25.083Z,6.95
2018-04-10T20:51:52.927Z,7.20
2018-04-10T20:54:21.579Z,7.18
2018-04-10T20:56:49.378Z,7.65
2018-04-10T20:59:17.981Z,7.50
2018-04-10T21:01:45.803Z,9.77
2018-04-10T21:04:13.587Z,7.65
2018-04-10T21:06:42.195Z,8.02
2018-04-10T21:09:09.975Z,6.60
2018-04-10T21:11:37.771Z,10.32
2018-04-10T21:14:05.608Z,8.45
2018-04-10T21:16:33.437Z,8.00
2018-04-10T21:19:01.238Z,8.00
2018-04-10T21:21:29.082Z,7.55
2018-04-10T21:23:56.857Z,7.62
2018-04-10T21:26:24.649Z,11.65
2018-04-10T21:28:53.291Z,8.65
2018-04-10T21:31:21.144Z,9.20
2018-04-10T21:33:48.955Z,8.93
2018-04-10T21:36:17.134Z,8.63
2018-04-10T21:38:44.918Z,8.80
2018-04-10T21:41:12.707Z,9.40
2018-04-10T21:43:40.530Z,11.52
2018-04-10T21:46:09.070Z,10.55
2018-04-10T21:48:36.849Z,11.32
2018-04-10T21:51:04.699Z,10.38
2018-04-10T21:53:32.489Z,11.55
2018-04-10T21:56:00.285Z,10.73
2018-04-10T21:58:28.914Z,14.87
2018-04-10T22:00:57.483Z,9.98
2018-04-10T22:03:25.258Z,11.55
2018-04-10T22:05:53.458Z,11.00
2018-04-10T22:08:21.242Z,11.52
2018-04-10T22:10:50.827Z,11.18
2018-04-10T22:13:18.747Z,12.80
2018-04-10T22:15:47.257Z,12.80
2018-04-10T22:18:15.036Z,10.82
2018-04-10T22:20:43.629Z,11.27
2018-04-10T22:23:12.187Z,11.52
2018-04-10T22:25:39.973Z,16.48
2018-04-10T22:28:08.801Z,12.50
2018-04-10T22:30:36.778Z,12.10
2018-04-10T22:33:05.757Z,12.85
2018-04-10T22:41:03.599Z,14.25
2018-04-10T22:43:31.489Z,10.10
2018-04-10T22:45:59.312Z,12.82
2018-04-10T22:48:27.935Z,11.75
2018-04-10T22:50:55.706Z,11.48
2018-04-10T22:53:23.494Z,12.73
2018-04-10T22:55:51.401Z,12.48
2018-04-10T22:58:19.194Z,11.88
2018-04-10T23:00:49.781Z,13.45
2018-04-10T23:03:17.617Z,13.60
2018-04-10T23:05:45.386Z,11.70
2018-04-10T23:08:13.949Z,11.77
2018-04-10T23:10:42.571Z,12.43
2018-04-10T23:13:11.113Z,13.88
2018-04-10T23:15:39.905Z,12.80
2018-04-10T23:18:07.738Z,13.85
2018-04-10T23:20:35.509Z,13.70
2018-04-10T23:23:03.283Z,15.18
2018-04-10T23:25:31.114Z,13.98
2018-04-10T23:27:58.887Z,12.43
2018-04-10T23:30:26.673Z,14.98
2018-04-10T23:32:54.504Z,18.05
2018-04-10T23:35:23.032Z,14.32
2018-04-10T23:37:50.817Z,15.40
2018-04-10T23:40:18.662Z,15.35
2018-04-10T23:42:46.456Z,20.15
2018-04-10T23:45:14.271Z,17.58
2018-04-10T23:47:42.130Z,19.10
2018-04-10T23:50:09.902Z,18.10
2018-04-10T23:52:37.703Z,15.88
2018-04-10T23:55:05.544Z,14.70
2018-04-10T23:57:33.345Z,14.45
